createdAt,value
2023-03-25T00:02:17.946Z,11.00
2023-03-25T00:04:46.269Z,11.00
2023-03-25T00:07:37.645Z,11.00
2023-03-25T00:10:10.699Z,11.00
2023-03-25T00:12:41.364Z,11.00
2023-03-25T00:15:36.652Z,11.00
2023-03-25T00:18:06.984Z,10.90
2023-03-25T00:20:37.049Z,10.90
2023-03-25T00:23:25.707Z,10.90
2023-03-25T00:26:02.060Z,10.90
2023-03-25T00:28:34.592Z,10.90
2023-03-25T00:31:06.247Z,10.90
2023-03-25T00:33:42.578Z,10.90
2023-03-25T00:36:14.315Z,10.90
2023-03-25T00:38:46.172Z,10.90
2023-03-25T00:41:20.157Z,10.90
2023-03-25T00:43:55.464Z,10.90
2023-03-25T00:46:27.146Z,10.90
2023-03-25T00:49:17.845Z,10.90
2023-03-25T00:51:52.367Z,10.90
2023-03-25T00:54:22.295Z,11.00
2023-03-25T00:56:53.883Z,10.90
2023-03-25T00:59:42.221Z,10.90
2023-03-25T01:02:16.369Z,10.90
2023-03-25T01:04:49.321Z,10.90
2023-03-25T01:07:22.930Z,10.90
2023-03-25T01:09:52.396Z,11.00
2023-03-25T01:12:21.678Z,10.90
2023-03-25T01:15:13.091Z,10.90
2023-03-25T01:17:43.637Z,10.80
2023-03-25T01:20:13.844Z,10.80
2023-03-25T01:22:41.970Z,10.80
2023-03-25T01:25:11.708Z,10.80
2023-03-25T01:28:00.438Z,10.80
2023-03-25T01:30:32.030Z,10.80
2023-03-25T01:33:01.536Z,10.80
2023-03-25T01:35:59.938Z,10.80
2023-03-25T01:38:29.664Z,10.80
2023-03-25T01:41:02.142Z,10.80
2023-03-25T01:43:31.819Z,10.80
2023-03-25T01:46:22.500Z,10.80
2023-03-25T01:48:51.399Z,10.70
2023-03-25T01:51:25.258Z,10.70
2023-03-25T01:54:18.157Z,10.80
2023-03-25T01:56:53.812Z,10.70
2023-03-25T01:59:48.146Z,10.70
2023-03-25T02:02:18.981Z,10.70
2023-03-25T02:04:59.501Z,10.70
2023-03-25T02:07:32.823Z,10.70
2023-03-25T02:10:05.833Z,10.70
2023-03-25T02:12:55.883Z,10.80
2023-03-25T02:16:30.048Z,10.80
2023-03-25T02:19:22.761Z,10.70
2023-03-25T02:22:21.647Z,10.70
2023-03-25T02:25:28.041Z,10.80
2023-03-25T02:28:10.222Z,10.80
2023-03-25T02:31:04.164Z,10.80
2023-03-25T02:34:07.710Z,10.70
2023-03-25T02:37:29.512Z,10.80
2023-03-25T02:40:07.135Z,10.80
2023-03-25T02:42:41.024Z,10.70
2023-03-25T02:45:14.813Z,10.80
2023-03-25T02:47:50.983Z,10.70
2023-03-25T02:50:24.001Z,10.80
2023-03-25T02:52:56.187Z,10.80
2023-03-25T02:55:51.430Z,10.80
2023-03-25T02:58:44.099Z,10.80
2023-03-25T03:01:17.981Z,10.80
2023-03-25T03:03:46.455Z,10.80
2023-03-25T03:06:41.480Z,10.90
2023-03-25T03:09:42.968Z,10.80
2023-03-25T03:12:22.283Z,10.80
2023-03-25T03:15:06.530Z,10.80
2023-03-25T03:17:39.941Z,10.70
2023-03-25T03:20:38.323Z,10.80
2023-03-25T03:23:13.738Z,10.70
2023-03-25T03:25:57.888Z,10.60
2023-03-25T03:28:34.688Z,10.50
2023-03-25T03:31:09.549Z,10.50
2023-03-25T03:34:03.232Z,10.50
2023-03-25T03:36:39.227Z,10.50
2023-03-25T03:39:14.245Z,10.40
2023-03-25T03:41:49.138Z,10.40
2023-03-25T03:44:25.676Z,10.30
2023-03-25T03:46:59.448Z,10.30
2023-03-25T03:49:35.323Z,10.30
2023-03-25T03:52:09.710Z,10.30
2023-03-25T03:54:47.369Z,10.30
2023-03-25T03:57:23.175Z,10.20
2023-03-25T03:59:59.364Z,10.20
2023-03-25T04:02:35.654Z,10.20
2023-03-25T04:05:09.027Z,10.20
2023-03-25T04:07:42.831Z,10.10
2023-03-25T04:10:15.859Z,10.10
2023-03-25T04:12:47.617Z,10.10
2023-03-25T04:15:18.820Z,10.10
2023-03-25T04:17:48.148Z,10.10
2023-03-25T04:20:23.767Z,10.10
2023-03-25T04:22:52.462Z,10.10
2023-03-25T04:25:25.244Z,10.10
2023-03-25T04:27:58.989Z,10.10
2023-03-25T04:30:31.658Z,10.10
2023-03-25T04:33:01.341Z,10.10
2023-03-25T04:35:29.346Z,10.10
2023-03-25T04:38:20.196Z,10.10
2023-03-25T04:40:48.520Z,10.20
2023-03-25T04:43:18.531Z,10.10
2023-03-25T04:45:54.977Z,10.10
2023-03-25T04:48:30.098Z,10.10
2023-03-25T04:51:01.892Z,10.10
2023-03-25T04:53:33.613Z,10.10
2023-03-25T04:56:23.930Z,10.10
2023-03-25T04:58:52.643Z,10.10
2023-03-25T05:01:31.014Z,10.00
2023-03-25T05:04:05.702Z,10.00
2023-03-25T05:06:35.138Z,9.90
2023-03-25T05:09:05.180Z,9.90
2023-03-25T05:11:37.034Z,9.90
2023-03-25T05:14:05.702Z,9.90
2023-03-25T05:16:38.879Z,9.90
2023-03-25T05:19:08.624Z,9.90
2023-03-25T05:21:38.055Z,9.90
2023-03-25T05:24:11.052Z,9.90
2023-03-25T05:26:40.496Z,9.90
2023-03-25T05:29:16.497Z,9.90
2023-03-25T05:31:48.599Z,9.90
2023-03-25T05:34:19.521Z,9.90
2023-03-25T05:37:14.975Z,9.90
2023-03-25T05:39:45.744Z,10.00
2023-03-25T05:42:14.234Z,9.90
2023-03-25T05:44:52.416Z,10.00
2023-03-25T05:47:23.719Z,10.00
2023-03-25T05:49:53.974Z,10.00
2023-03-25T05:52:30.999Z,10.00
2023-03-25T05:54:59.017Z,10.00
2023-03-25T05:57:29.600Z,10.00
2023-03-25T06:00:01.706Z,10.00
2023-03-25T06:02:33.372Z,10.00
2023-03-25T06:05:02.570Z,10.00
2023-03-25T06:07:31.112Z,10.00
2023-03-25T06:10:23.916Z,10.00
2023-03-25T06:12:55.127Z,10.00
2023-03-25T06:15:29.288Z,10.00
2023-03-25T06:18:02.343Z,10.00
2023-03-25T06:20:30.788Z,10.00
2023-03-25T06:22:59.132Z,10.00
2023-03-25T06:25:28.463Z,10.00
2023-03-25T06:27:58.625Z,10.00
2023-03-25T06:30:26.671Z,10.00
2023-03-25T06:32:58.052Z,10.00
2023-03-25T06:35:27.752Z,10.00
2023-03-25T06:37:55.839Z,10.00
2023-03-25T06:40:25.072Z,10.00
2023-03-25T06:42:53.043Z,10.00
2023-03-25T06:45:21.355Z,10.10
2023-03-25T06:47:49.683Z,10.10
2023-03-25T06:50:17.657Z,10.10
2023-03-25T06:52:47.086Z,10.20
2023-03-25T06:55:15.980Z,10.20
2023-03-25T06:57:43.970Z,10.20
2023-03-25T07:00:13.113Z,10.20
2023-03-25T07:02:43.315Z,10.30
2023-03-25T07:05:11.279Z,10.30
2023-03-25T07:07:39.409Z,10.30
2023-03-25T07:10:09.886Z,10.30
2023-03-25T07:12:37.858Z,10.30
2023-03-25T07:15:06.822Z,10.40
2023-03-25T07:17:35.000Z,10.40
2023-03-25T07:20:03.130Z,10.40
2023-03-25T07:22:31.208Z,10.40
2023-03-25T07:24:59.692Z,10.40
2023-03-25T07:27:29.091Z,10.40
2023-03-25T07:29:57.058Z,10.40
2023-03-25T07:32:25.065Z,10.50
2023-03-25T07:34:53.188Z,10.50
2023-03-25T07:37:21.173Z,10.60
2023-03-25T07:39:49.145Z,10.60
2023-03-25T07:42:17.235Z,10.60
2023-03-25T07:44:47.138Z,10.60
2023-03-25T07:47:15.329Z,10.60
2023-03-25T07:49:44.152Z,10.60
2023-03-25T07:52:12.104Z,10.60
2023-03-25T07:54:40.186Z,10.60
2023-03-25T07:57:08.258Z,10.70
2023-03-25T07:59:36.433Z,10.70
2023-03-25T08:02:05.872Z,10.70
2023-03-25T08:04:33.817Z,10.70
2023-03-25T08:07:03.058Z,10.70
2023-03-25T08:09:31.718Z,10.70
2023-03-25T08:11:59.658Z,10.80
2023-03-25T08:14:28.061Z,10.80
2023-03-25T08:16:56.126Z,10.80
2023-03-25T08:19:25.766Z,10.80
2023-03-25T08:21:53.820Z,10.80
2023-03-25T08:24:21.881Z,10.90
2023-03-25T08:26:49.960Z,10.90
2023-03-25T08:29:18.237Z,11.00
2023-03-25T08:31:52.173Z,11.00
2023-03-25T08:34:21.676Z,11.10
2023-03-25T08:36:51.206Z,11.10
2023-03-25T08:39:19.462Z,11.20
2023-03-25T08:41:47.607Z,11.20
2023-03-25T08:44:15.775Z,11.20
2023-03-25T08:46:44.132Z,11.30
2023-03-25T08:49:12.159Z,11.30
2023-03-25T08:51:40.309Z,11.30
2023-03-25T08:54:09.777Z,11.30
2023-03-25T08:56:37.874Z,11.30
2023-03-25T08:59:06.180Z,11.30
2023-03-25T09:01:34.321Z,11.30
2023-03-25T09:04:02.342Z,11.30
2023-03-25T09:06:30.498Z,11.40
2023-03-25T09:09:18.154Z,11.40
2023-03-25T09:11:48.231Z,11.40
2023-03-25T09:14:16.358Z,11.40
2023-03-25T09:16:44.410Z,11.50
2023-03-25T09:19:12.450Z,11.50
2023-03-25T09:21:40.448Z,11.50
2023-03-25T09:24:10.151Z,11.50
2023-03-25T09:26:39.645Z,11.50
2023-03-25T09:29:07.716Z,11.60
2023-03-25T09:31:36.052Z,11.50
2023-03-25T09:34:04.417Z,11.60
2023-03-25T09:36:32.919Z,11.60
2023-03-25T09:39:00.879Z,11.60
2023-03-25T09:41:55.208Z,11.60
2023-03-25T09:44:29.817Z,11.70
2023-03-25T09:47:00.570Z,11.70
2023-03-25T09:49:38.796Z,11.70
2023-03-25T09:52:11.824Z,11.70
2023-03-25T09:54:45.652Z,11.70
2023-03-25T09:57:19.763Z,11.70
2023-03-25T09:59:50.481Z,11.80
2023-03-25T10:02:31.822Z,11.80
2023-03-25T10:05:20.618Z,11.80
2023-03-25T10:08:03.427Z,11.80
2023-03-25T10:10:41.603Z,11.80
2023-03-25T10:13:20.742Z,11.80
2023-03-25T10:15:55.097Z,11.80
2023-03-25T10:18:38.641Z,11.80
2023-03-25T10:21:12.896Z,11.90
2023-03-25T10:23:44.482Z,11.90
2023-03-25T10:26:17.587Z,11.90
2023-03-25T10:28:54.421Z,11.90
2023-03-25T10:31:26.421Z,11.90
2023-03-25T10:33:56.813Z,12.00
2023-03-25T10:36:32.778Z,12.10
2023-03-25T10:39:04.187Z,12.10
2023-03-25T10:41:37.404Z,12.10
2023-03-25T10:44:11.569Z,12.10
2023-03-25T10:46:47.675Z,12.10
2023-03-25T10:49:18.281Z,12.10
2023-03-25T10:51:48.161Z,12.10
2023-03-25T10:54:18.721Z,12.10
2023-03-25T10:56:49.482Z,12.10
2023-03-25T10:59:23.972Z,12.10
2023-03-25T11:01:53.671Z,12.10
2023-03-25T11:04:24.155Z,12.10
2023-03-25T11:06:57.666Z,12.20
2023-03-25T11:09:28.173Z,12.20
2023-03-25T11:11:58.747Z,12.20
2023-03-25T11:14:30.115Z,12.30
2023-03-25T11:17:03.212Z,12.20
2023-03-25T11:19:37.502Z,12.20
2023-03-25T11:22:12.176Z,12.20
2023-03-25T11:24:44.370Z,12.20
2023-03-25T11:27:18.148Z,12.20
2023-03-25T11:29:53.492Z,12.30
2023-03-25T11:32:33.484Z,12.30
2023-03-25T11:35:03.991Z,12.30
2023-03-25T11:37:32.639Z,12.50
2023-03-25T11:40:14.233Z,12.50
2023-03-25T11:42:46.184Z,12.70
2023-03-25T11:45:23.403Z,12.70
2023-03-25T11:47:52.536Z,12.70
2023-03-25T11:50:24.258Z,12.70
2023-03-25T11:52:56.839Z,12.70
2023-03-25T11:55:28.074Z,12.70
2023-03-25T11:57:58.722Z,12.60
2023-03-25T12:00:38.407Z,12.70
2023-03-25T12:03:20.099Z,12.70
2023-03-25T12:05:59.986Z,12.70
2023-03-25T12:08:31.286Z,12.80
2023-03-25T12:11:06.932Z,12.80
2023-03-25T12:13:46.263Z,12.90
2023-03-25T12:16:23.417Z,12.90
2023-03-25T12:19:06.744Z,12.90
2023-03-25T12:21:55.167Z,12.90
2023-03-25T12:24:38.026Z,12.90
2023-03-25T12:27:18.641Z,12.90
2023-03-25T12:29:51.805Z,12.90
2023-03-25T12:32:32.806Z,13.00
2023-03-25T12:35:14.661Z,13.00
2023-03-25T12:37:58.312Z,13.00
2023-03-25T12:40:38.126Z,13.00
2023-03-25T12:43:11.096Z,13.00
2023-03-25T12:45:53.604Z,12.90
2023-03-25T12:48:36.564Z,12.90
2023-03-25T12:51:13.596Z,12.90
2023-03-25T12:53:51.913Z,12.80
2023-03-25T12:56:41.043Z,12.80
2023-03-25T12:59:38.585Z,12.80
2023-03-25T13:02:21.188Z,12.80
2023-03-25T13:05:05.170Z,12.90
2023-03-25T13:07:39.225Z,12.90
2023-03-25T13:10:15.925Z,12.90
2023-03-25T13:12:47.599Z,12.90
2023-03-25T13:15:26.417Z,12.90
2023-03-25T13:17:58.115Z,12.80
2023-03-25T13:20:31.045Z,12.80
2023-03-25T13:23:02.283Z,12.70
2023-03-25T13:25:36.924Z,12.70
2023-03-25T13:28:08.305Z,12.60
2023-03-25T13:30:39.960Z,12.50
2023-03-25T13:33:13.754Z,12.40
2023-03-25T13:35:47.777Z,12.40
2023-03-25T13:38:22.131Z,12.40
2023-03-25T13:40:59.637Z,12.40
2023-03-25T13:43:33.572Z,12.40
2023-03-25T13:46:07.105Z,12.40
2023-03-25T13:48:41.868Z,12.50
2023-03-25T13:51:11.490Z,12.40
2023-03-25T13:53:44.832Z,12.40
2023-03-25T13:56:47.919Z,12.40
2023-03-25T13:59:46.104Z,12.50
2023-03-25T14:02:43.006Z,12.50
2023-03-25T14:05:36.709Z,12.70
2023-03-25T14:08:43.871Z,12.90
2023-03-25T14:11:23.003Z,13.30
2023-03-25T14:13:54.494Z,13.70
2023-03-25T14:16:26.057Z,13.90
2023-03-25T14:18:57.532Z,14.10
2023-03-25T14:21:33.293Z,14.30
2023-03-25T14:24:11.324Z,14.50
2023-03-25T14:26:47.640Z,14.70
2023-03-25T14:29:26.290Z,14.90
2023-03-25T14:32:06.008Z,14.90
2023-03-25T14:34:34.406Z,14.80
2023-03-25T14:37:33.287Z,14.70
2023-03-25T14:40:23.682Z,14.60
2023-03-25T14:43:01.468Z,14.50
2023-03-25T14:45:51.999Z,14.40
2023-03-25T14:48:31.556Z,14.40
2023-03-25T14:51:23.168Z,14.20
2023-03-25T14:53:57.671Z,14.00
2023-03-25T14:56:35.624Z,13.80
2023-03-25T14:59:10.469Z,13.70
2023-03-25T15:01:41.170Z,13.40
2023-03-25T15:04:13.408Z,13.40
2023-03-25T15:06:42.344Z,13.20
2023-03-25T15:09:13.536Z,13.10
2023-03-25T15:11:45.636Z,13.10
2023-03-25T15:14:20.259Z,13.20
2023-03-25T15:17:01.750Z,13.20
2023-03-25T15:19:29.912Z,13.10
2023-03-25T15:22:23.312Z,13.10
2023-03-25T15:24:59.149Z,13.00
2023-03-25T15:27:42.520Z,13.00
2023-03-25T15:30:31.120Z,13.00
2023-03-25T15:33:13.850Z,13.00
2023-03-25T15:35:57.034Z,13.00
2023-03-25T15:38:51.232Z,13.10
2023-03-25T15:41:57.428Z,13.10
2023-03-25T15:44:47.359Z,13.10
2023-03-25T15:47:40.538Z,13.00
2023-03-25T15:50:39.069Z,13.00
2023-03-25T15:53:42.041Z,13.00
2023-03-25T15:56:13.214Z,12.90
2023-03-25T15:58:48.393Z,12.90
2023-03-25T16:01:24.988Z,12.90
2023-03-25T16:03:59.526Z,12.80
2023-03-25T16:06:28.459Z,12.80
2023-03-25T16:08:59.701Z,12.80
2023-03-25T16:11:29.023Z,12.80
2023-03-25T16:14:05.634Z,12.80
2023-03-25T16:16:37.055Z,12.80
2023-03-25T16:19:10.061Z,12.80
2023-03-25T16:21:39.158Z,12.70
2023-03-25T16:24:10.505Z,12.70
2023-03-25T16:26:41.788Z,12.70
2023-03-25T16:29:16.508Z,12.70
2023-03-25T16:31:53.677Z,12.60
2023-03-25T16:34:22.343Z,12.60
2023-03-25T16:36:53.200Z,12.60
2023-03-25T16:39:22.544Z,12.50
2023-03-25T16:41:52.630Z,12.60
2023-03-25T16:44:23.887Z,12.50
2023-03-25T16:46:54.499Z,12.50
2023-03-25T16:49:28.135Z,12.50
2023-03-25T16:51:57.607Z,12.40
2023-03-25T16:54:33.521Z,12.30
2023-03-25T16:57:02.391Z,12.30
2023-03-25T16:59:33.744Z,12.20
2023-03-25T17:02:05.606Z,12.20
2023-03-25T17:04:41.796Z,12.10
2023-03-25T17:07:14.557Z,12.10
2023-03-25T17:09:44.797Z,12.10
2023-03-25T17:12:18.742Z,12.10
2023-03-25T17:14:50.399Z,12.10
2023-03-25T17:17:33.236Z,12.10
2023-03-25T17:20:07.005Z,12.10
2023-03-25T17:22:36.496Z,12.10
2023-03-25T17:25:23.933Z,12.10
2023-03-25T17:27:56.094Z,12.10
2023-03-25T17:30:40.869Z,12.10
2023-03-25T17:33:15.484Z,12.10
2023-03-25T17:35:45.553Z,12.10
2023-03-25T17:38:26.064Z,12.10
2023-03-25T17:41:02.314Z,12.10
2023-03-25T17:43:32.513Z,12.10
2023-03-25T17:46:01.743Z,12.10
2023-03-25T17:48:31.473Z,12.10
2023-03-25T17:51:00.354Z,12.00
2023-03-25T17:53:29.131Z,12.00
2023-03-25T17:55:59.367Z,12.00
2023-03-25T17:58:27.545Z,12.00
2023-03-25T18:00:56.142Z,12.00
2023-03-25T18:03:26.404Z,12.00
2023-03-25T18:05:55.871Z,11.90
2023-03-25T18:08:25.737Z,11.90
2023-03-25T18:10:55.385Z,11.90
2023-03-25T18:13:25.037Z,11.90
2023-03-25T18:15:53.612Z,11.90
2023-03-25T18:18:24.246Z,11.90
2023-03-25T18:20:53.244Z,11.80
2023-03-25T18:23:23.246Z,11.90
2023-03-25T18:25:52.001Z,11.80
2023-03-25T18:28:19.966Z,11.80
2023-03-25T18:30:52.176Z,11.80
2023-03-25T18:33:20.709Z,11.80
2023-03-25T18:35:49.027Z,11.80
2023-03-25T18:38:20.073Z,11.80
2023-03-25T18:40:50.255Z,11.80
2023-03-25T18:43:19.440Z,11.80
2023-03-25T18:45:50.234Z,11.70
2023-03-25T18:48:22.687Z,11.70
2023-03-25T18:50:54.969Z,11.70
2023-03-25T18:53:28.712Z,11.70
2023-03-25T18:56:00.852Z,11.70
2023-03-25T18:58:31.780Z,11.60
2023-03-25T19:01:01.305Z,11.60
2023-03-25T19:03:31.645Z,11.60
2023-03-25T19:06:02.790Z,11.60
2023-03-25T19:08:34.490Z,11.70
2023-03-25T19:11:16.325Z,11.70
2023-03-25T19:13:49.229Z,11.60
2023-03-25T19:16:17.804Z,11.60
2023-03-25T19:18:46.945Z,11.60
2023-03-25T19:21:18.209Z,11.60
2023-03-25T19:23:46.861Z,11.50
2023-03-25T19:26:17.928Z,11.50
2023-03-25T19:28:46.230Z,11.50
2023-03-25T19:31:16.451Z,11.60
2023-03-25T19:33:44.960Z,11.50
2023-03-25T19:36:36.061Z,11.50
2023-03-25T19:39:05.770Z,11.50
2023-03-25T19:41:42.073Z,11.50
2023-03-25T19:44:10.484Z,11.50
2023-03-25T19:46:38.966Z,11.40
2023-03-25T19:49:07.292Z,11.40
2023-03-25T19:51:35.567Z,11.40
2023-03-25T19:54:03.833Z,11.40
2023-03-25T19:56:32.216Z,11.40
2023-03-25T19:59:02.656Z,11.40
2023-03-25T20:01:31.167Z,11.40
2023-03-25T20:03:59.909Z,11.40
2023-03-25T20:06:28.285Z,11.40
2023-03-25T20:08:56.620Z,11.40
2023-03-25T20:11:24.981Z,11.40
2023-03-25T20:13:54.567Z,11.40
2023-03-25T20:16:28.611Z,11.40
2023-03-25T20:18:56.794Z,11.40
2023-03-25T20:21:25.350Z,11.40
2023-03-25T20:23:54.600Z,11.40
2023-03-25T20:26:23.088Z,11.40
2023-03-25T20:28:52.699Z,11.40
2023-03-25T20:31:24.651Z,11.40
2023-03-25T20:33:53.405Z,11.40
2023-03-25T20:36:21.810Z,11.30
2023-03-25T20:38:57.648Z,11.30
2023-03-25T20:41:26.753Z,11.30
2023-03-25T20:43:55.255Z,11.30
2023-03-25T20:46:28.418Z,11.20
2023-03-25T20:48:56.713Z,11.20
2023-03-25T20:51:26.107Z,11.20
2023-03-25T20:53:54.713Z,11.10
2023-03-25T20:56:22.977Z,11.10
2023-03-25T20:58:51.111Z,11.10
2023-03-25T21:01:21.401Z,11.00
2023-03-25T21:03:51.637Z,11.00
2023-03-25T21:06:23.637Z,11.00
2023-03-25T21:08:55.167Z,11.00
2023-03-25T21:11:23.926Z,10.90
2023-03-25T21:13:52.059Z,10.90
2023-03-25T21:16:20.337Z,10.90
2023-03-25T21:18:50.692Z,10.90
2023-03-25T21:21:20.084Z,10.90
2023-03-25T21:23:49.278Z,10.90
2023-03-25T21:26:17.846Z,10.80
2023-03-25T21:28:48.637Z,10.80
2023-03-25T21:31:21.800Z,10.80
2023-03-25T21:33:53.083Z,10.80
2023-03-25T21:36:24.359Z,10.80
2023-03-25T21:38:56.004Z,10.80
2023-03-25T21:41:24.592Z,10.80
2023-03-25T21:43:53.310Z,10.80
2023-03-25T21:46:27.658Z,10.80
2023-03-25T21:49:00.792Z,10.80
2023-03-25T21:51:30.871Z,10.90
2023-03-25T21:54:00.475Z,10.90
2023-03-25T21:56:31.329Z,10.90
2023-03-25T21:59:01.720Z,10.90
2023-03-25T22:01:30.097Z,10.90
2023-03-25T22:04:00.411Z,10.90
2023-03-25T22:06:30.461Z,10.90
2023-03-25T22:08:59.030Z,10.90
2023-03-25T22:11:29.568Z,10.90
2023-03-25T22:13:58.352Z,10.90
2023-03-25T22:16:27.705Z,10.80
2023-03-25T22:18:56.632Z,10.80
2023-03-25T22:21:31.522Z,10.90
2023-03-25T22:24:02.803Z,10.90
2023-03-25T22:26:35.345Z,10.90
2023-03-25T22:29:08.533Z,10.90
2023-03-25T22:31:39.867Z,10.90
2023-03-25T22:34:15.272Z,10.90
2023-03-25T22:36:50.722Z,10.90
2023-03-25T22:39:19.550Z,10.90
2023-03-25T22:41:48.208Z,10.90
2023-03-25T22:44:18.115Z,10.90
2023-03-25T22:46:48.772Z,10.90
2023-03-25T22:49:18.872Z,10.90
2023-03-25T22:51:48.518Z,10.90
2023-03-25T22:54:17.996Z,11.00
2023-03-25T22:56:46.562Z,11.00
2023-03-25T22:59:16.173Z,11.00
2023-03-25T23:01:47.032Z,11.00
2023-03-25T23:04:16.529Z,11.00
2023-03-25T23:06:49.141Z,11.10
2023-03-25T23:09:41.349Z,11.10
2023-03-25T23:12:13.491Z,11.10
2023-03-25T23:14:42.869Z,11.10
2023-03-25T23:17:12.290Z,11.20
2023-03-25T23:19:42.960Z,11.10
2023-03-25T23:22:11.212Z,11.20
2023-03-25T23:24:40.766Z,11.20
2023-03-25T23:27:10.577Z,11.20
2023-03-25T23:29:42.397Z,11.20
2023-03-25T23:32:11.550Z,11.20
2023-03-25T23:34:40.423Z,11.20
2023-03-25T23:37:09.616Z,11.20
2023-03-25T23:39:40.422Z,11.10
2023-03-25T23:42:10.120Z,11.10
2023-03-25T23:44:38.236Z,11.10
2023-03-25T23:47:06.963Z,11.10
2023-03-25T23:49:38.375Z,11.10
2023-03-25T23:52:11.491Z,11.10
2023-03-25T23:54:40.490Z,11.10
2023-03-25T23:57:10.178Z,11.10
2023-03-25T23:59:38.315Z,11.10
